Station Historical Data
Daily Summary for June 8, 2017 Units:  English    Metric   Both
« Previous Day
Next Day »
Daily Weekly Monthly Yearly Custom
  High: Low: Average:
Temperature: 77.0 °F 47.3 °F 63.6 °F
Dew Point: 55.3 °F 43.3 °F 49.3 °F
Humidity: 87% 40% 62%
Wind Speed: 10.0mph 0.0mph 1.3mph
Wind Gust: 12.0mph - -
Wind- - South
Pressure: 30.07 in 29.82 in -
Precipitation: 0.00 in    
Historical Graphs
 
 
Tabular Data for June 8, 2017
Time Temperature Dew Point Pressure Wind Wind Speed Wind Gust Humidity Rainfall Rate (Hourly)
00:04 55.2 °F 46.3 °F 30.07 in Calm     72% 0.00 in
00:09 55.3 °F 46.4 °F 30.07 in Calm     72% 0.00 in
00:14 55.0 °F 46.1 °F 30.07 in Calm     72% 0.00 in
00:19 54.2 °F 45.7 °F 30.07 in Calm     73% 0.00 in
00:24 53.8 °F 46.1 °F 30.07 in Calm     75% 0.00 in
00:29 53.9 °F 46.2 °F 30.07 in Calm     75% 0.00 in
00:34 53.9 °F 46.2 °F 30.07 in Calm     75% 0.00 in
00:39 53.5 °F 46.1 °F 30.07 in Calm     76% 0.00 in
00:44 53.7 °F 46.3 °F 30.06 in Calm     76% 0.00 in
00:49 53.9 °F 46.5 °F 30.06 in Calm     76% 0.00 in
00:54 53.7 °F 46.3 °F 30.06 in Calm     76% 0.00 in
00:59 53.4 °F 46.4 °F 30.07 in Calm     77% 0.00 in
01:04 53.4 °F 46.4 °F 30.06 in Calm     77% 0.00 in
01:09 53.4 °F 46.4 °F 30.06 in Calm     77% 0.00 in
01:14 53.4 °F 46.4 °F 30.06 in Calm     77% 0.00 in
01:19 53.2 °F 46.5 °F 30.06 in Calm     78% 0.00 in
01:24 52.9 °F 46.2 °F 30.06 in Calm     78% 0.00 in
01:29 52.7 °F 46.0 °F 30.06 in Calm     78% 0.00 in
01:34 52.2 °F 45.9 °F 30.06 in Calm     79% 0.00 in
01:39 52.3 °F 46.0 °F 30.06 in Calm     79% 0.00 in
01:44 52.2 °F 45.9 °F 30.05 in Calm     79% 0.00 in
01:49 52.0 °F 45.7 °F 30.05 in Calm     79% 0.00 in
01:54 51.9 °F 45.9 °F 30.05 in Calm     80% 0.00 in
01:59 51.8 °F 45.8 °F 30.05 in NE 1.0 mph 2.0 mph 80% 0.00 in
02:04 51.8 °F 45.8 °F 30.05 in Calm   2.0 mph 80% 0.00 in
02:09 51.7 °F 45.7 °F 30.05 in Calm   1.0 mph 80% 0.00 in
02:14 51.6 °F 45.6 °F 30.05 in Calm     80% 0.00 in
02:19 51.5 °F 45.5 °F 30.05 in Calm   1.0 mph 80% 0.00 in
02:24 51.4 °F 45.8 °F 30.05 in Calm   1.0 mph 81% 0.00 in
02:29 51.1 °F 45.5 °F 30.05 in Calm     81% 0.00 in
02:34 51.0 °F 45.4 °F 30.05 in Calm   1.0 mph 81% 0.00 in
02:39 50.8 °F 45.2 °F 30.04 in Calm     81% 0.00 in
02:44 50.6 °F 45.3 °F 30.05 in Calm     82% 0.00 in
02:49 50.2 °F 44.9 °F 30.05 in Calm     82% 0.00 in
02:54 50.2 °F 45.2 °F 30.05 in Calm     83% 0.00 in
02:59 50.2 °F 45.2 °F 30.05 in Calm     83% 0.00 in
03:04 49.9 °F 44.6 °F 30.04 in Calm     82% 0.00 in
03:09 49.8 °F 44.8 °F 30.04 in Calm     83% 0.00 in
03:14 49.8 °F 44.8 °F 30.04 in Calm     83% 0.00 in
03:19 49.7 °F 44.7 °F 30.04 in Calm     83% 0.00 in
03:24 49.8 °F 44.8 °F 30.04 in Calm     83% 0.00 in
03:29 49.7 °F 44.7 °F 30.04 in Calm     83% 0.00 in
03:34 49.8 °F 44.8 °F 30.04 in Calm     83% 0.00 in
03:39 49.7 °F 44.7 °F 30.04 in Calm     83% 0.00 in
03:44 49.7 °F 44.7 °F 30.04 in Calm     83% 0.00 in
03:49 49.4 °F 44.5 °F 30.04 in Calm     83% 0.00 in
03:54 49.0 °F 44.1 °F 30.04 in Calm     83% 0.00 in
03:59 48.8 °F 44.2 °F 30.04 in Calm     84% 0.00 in
04:04 48.5 °F 43.9 °F 30.04 in Calm     84% 0.00 in
04:09 48.5 °F 44.2 °F 30.04 in Calm     85% 0.00 in
04:14 48.5 °F 44.2 °F 30.04 in Calm     85% 0.00 in
04:19 48.5 °F 43.9 °F 30.04 in Calm     84% 0.00 in
04:24 48.2 °F 43.9 °F 30.04 in Calm     85% 0.00 in
04:29 48.3 °F 44.0 °F 30.04 in Calm     85% 0.00 in
04:34 48.1 °F 43.8 °F 30.04 in Calm     85% 0.00 in
04:39 48.2 °F 43.9 °F 30.04 in Calm     85% 0.00 in
04:44 48.0 °F 43.7 °F 30.04 in Calm     85% 0.00 in
04:49 47.9 °F 43.6 °F 30.04 in Calm     85% 0.00 in
04:54 47.8 °F 43.5 °F 30.04 in Calm     85% 0.00 in
04:59 47.7 °F 43.4 °F 30.04 in Calm     85% 0.00 in
05:04 47.7 °F 43.7 °F 30.04 in Calm     86% 0.00 in
05:09 47.6 °F 43.6 °F 30.04 in Calm     86% 0.00 in
05:14 47.5 °F 43.5 °F 30.04 in Calm     86% 0.00 in
05:19 47.7 °F 43.7 °F 30.04 in Calm     86% 0.00 in
05:24 47.6 °F 43.6 °F 30.04 in Calm     86% 0.00 in
05:29 47.5 °F 43.5 °F 30.05 in Calm     86% 0.00 in
05:34 47.5 °F 43.5 °F 30.05 in Calm     86% 0.00 in
05:39 47.3 °F 43.3 °F 30.05 in Calm     86% 0.00 in
05:44 47.6 °F 43.9 °F 30.05 in Calm     87% 0.00 in
05:49 48.0 °F 44.3 °F 30.05 in Calm     87% 0.00 in
05:54 48.3 °F 44.6 °F 30.05 in Calm     87% 0.00 in
05:59 48.3 °F 44.3 °F 30.06 in Calm     86% 0.00 in
06:04 48.3 °F 44.3 °F 30.06 in Calm     86% 0.00 in
06:09 48.5 °F 44.5 °F 30.06 in Calm     86% 0.00 in
06:14 48.9 °F 44.9 °F 30.06 in Calm     86% 0.00 in
06:19 49.2 °F 44.9 °F 30.06 in Calm     85% 0.00 in
06:24 49.4 °F 45.1 °F 30.06 in Calm     85% 0.00 in
06:29 50.0 °F 45.7 °F 30.06 in Calm     85% 0.00 in
06:34 50.6 °F 45.9 °F 30.06 in Calm   3.0 mph 84% 0.00 in
06:39 51.1 °F 46.1 °F 30.06 in NE 1.0 mph 3.0 mph 83% 0.00 in
06:44 51.5 °F 46.2 °F 30.06 in NE 2.0 mph 2.0 mph 82% 0.00 in
06:49 51.9 °F 46.3 °F 30.06 in NE 2.0 mph 2.0 mph 81% 0.00 in
06:54 52.4 °F 46.4 °F 30.06 in NE 2.0 mph 2.0 mph 80% 0.00 in
06:59 52.8 °F 46.5 °F 30.07 in NE 1.0 mph 3.0 mph 79% 0.00 in
07:04 53.1 °F 46.8 °F 30.06 in NE 1.0 mph 3.0 mph 79% 0.00 in
07:09 53.3 °F 47.0 °F 30.06 in NE 1.0 mph 4.0 mph 79% 0.00 in
07:14 53.6 °F 46.9 °F 30.06 in NE 1.0 mph 4.0 mph 78% 0.00 in
07:19 54.2 °F 47.1 °F 30.07 in Calm     77% 0.00 in
07:24 54.6 °F 47.2 °F 30.06 in Calm     76% 0.00 in
07:29 55.3 °F 47.5 °F 30.06 in Calm     75% 0.00 in
07:34 55.8 °F 48.0 °F 30.06 in Calm     75% 0.00 in
07:39 56.3 °F 48.1 °F 30.06 in Calm     74% 0.00 in
07:44 56.8 °F 48.2 °F 30.07 in Calm     73% 0.00 in
07:49 57.3 °F 48.3 °F 30.06 in Calm     72% 0.00 in
07:54 58.0 °F 49.0 °F 30.06 in NE 1.0 mph 1.0 mph 72% 0.00 in
07:59 58.3 °F 48.6 °F 30.06 in NE 1.0 mph 3.0 mph 70% 0.00 in
08:04 58.5 °F 48.7 °F 30.06 in NE 1.0 mph 3.0 mph 70% 0.00 in
08:09 59.3 °F 49.5 °F 30.06 in Calm   2.0 mph 70% 0.00 in
08:14 60.0 °F 49.8 °F 30.06 in Calm   3.0 mph 69% 0.00 in
08:19 60.6 °F 50.0 °F 30.06 in Calm   3.0 mph 68% 0.00 in
08:24 61.1 °F 50.5 °F 30.06 in Calm     68% 0.00 in
08:29 60.7 °F 49.7 °F 30.06 in Calm     67% 0.00 in
08:34 61.9 °F 50.8 °F 30.06 in Calm     67% 0.00 in
08:39 62.9 °F 50.1 °F 30.06 in Calm     63% 0.00 in
08:44 63.1 °F 50.7 °F 30.06 in Calm     64% 0.00 in
08:49 63.6 °F 50.3 °F 30.06 in Calm     62% 0.00 in
08:54 63.8 °F 50.5 °F 30.06 in Calm     62% 0.00 in
08:59 64.6 °F 51.7 °F 30.06 in Calm     63% 0.00 in
09:04 65.6 °F 50.9 °F 30.06 in Calm     59% 0.00 in
09:09 66.7 °F 51.9 °F 30.06 in Calm     59% 0.00 in
09:14 66.2 °F 52.3 °F 30.06 in Calm     61% 0.00 in
09:19 66.2 °F 51.9 °F 30.06 in SSE 1.0 mph 3.0 mph 60% 0.00 in
09:24 66.6 °F 49.9 °F 30.06 in Calm     55% 0.00 in
09:29 66.6 °F 49.9 °F 30.05 in Calm   4.0 mph 55% 0.00 in
09:34 67.8 °F 51.5 °F 30.05 in SE 1.0 mph 2.0 mph 56% 0.00 in
09:39 68.3 °F 50.5 °F 30.05 in ENE 1.0 mph 4.0 mph 53% 0.00 in
09:44 68.1 °F 49.3 °F 30.05 in Calm   2.0 mph 51% 0.00 in
09:49 69.2 °F 50.3 °F 30.05 in NNW 1.0 mph 2.0 mph 51% 0.00 in
09:54 69.6 °F 50.1 °F 30.05 in NNW 1.0 mph 2.0 mph 50% 0.00 in
09:59 69.9 °F 50.4 °F 30.05 in NE 1.0 mph 4.0 mph 50% 0.00 in
10:04 70.3 °F 52.9 °F 30.04 in NNE 2.0 mph 4.0 mph 54% 0.00 in
10:14 70.3 °F 49.7 °F 30.04 in NE 1.0 mph 4.0 mph 48% 0.00 in
10:19 70.8 °F 49.0 °F 30.04 in ENE 1.0 mph 5.0 mph 46% 0.00 in
10:24 70.5 °F 47.5 °F 30.04 in East 2.0 mph 5.0 mph 44% 0.00 in
10:29 71.1 °F 52.0 °F 30.03 in ESE 1.0 mph 4.0 mph 51% 0.00 in
10:34 71.1 °F 48.1 °F 30.03 in SE 1.0 mph 4.0 mph 44% 0.00 in
10:39 72.1 °F 48.4 °F 30.03 in ESE 1.0 mph 3.0 mph 43% 0.00 in
10:44 72.3 °F 49.2 °F 30.03 in ESE 2.0 mph 3.0 mph 44% 0.00 in
10:49 72.6 °F 50.6 °F 30.02 in Calm   2.0 mph 46% 0.00 in
10:54 72.4 °F 49.9 °F 30.02 in NNE 1.0 mph 6.0 mph 45% 0.00 in
10:59 72.0 °F 49.5 °F 30.02 in NE 2.0 mph 7.0 mph 45% 0.00 in
11:04 72.1 °F 50.2 °F 30.02 in ESE 1.0 mph 4.0 mph 46% 0.00 in
11:09 72.6 °F 52.3 °F 30.02 in ESE 2.0 mph 7.0 mph 49% 0.00 in
11:14 72.9 °F 52.1 °F 30.02 in NE 4.0 mph 6.0 mph 48% 0.00 in
11:19 72.7 °F 51.3 °F 30.01 in NW 2.0 mph 6.0 mph 47% 0.00 in
11:24 72.8 °F 51.4 °F 30.01 in North 3.0 mph 5.0 mph 47% 0.00 in
11:29 72.8 °F 52.5 °F 30.01 in NNE 2.0 mph 5.0 mph 49% 0.00 in
11:34 73.5 °F 52.0 °F 30.01 in ESE 2.0 mph 8.0 mph 47% 0.00 in
11:39 73.2 °F 51.2 °F 30.01 in ENE 4.0 mph 8.0 mph 46% 0.00 in
11:44 73.1 °F 51.1 °F 30.00 in ENE 3.0 mph 8.0 mph 46% 0.00 in
11:49 72.3 °F 49.8 °F 30.00 in ENE 2.0 mph 8.0 mph 45% 0.00 in
11:54 73.7 °F 49.8 °F 30.00 in NW 2.0 mph 4.0 mph 43% 0.00 in
11:59 73.9 °F 51.2 °F 29.99 in East 2.0 mph 3.0 mph 45% 0.00 in
12:04 74.4 °F 51.7 °F 29.99 in NE 3.0 mph 8.0 mph 45% 0.00 in
12:09 74.2 °F 52.7 °F 29.99 in ENE 1.0 mph 3.0 mph 47% 0.00 in
12:14 73.3 °F 48.8 °F 29.99 in North 2.0 mph 5.0 mph 42% 0.00 in
12:19 73.3 °F 50.7 °F 29.99 in NW 1.0 mph 5.0 mph 45% 0.00 in
12:24 74.0 °F 52.5 °F 29.99 in West 1.0 mph 3.0 mph 47% 0.00 in
12:29 74.9 °F 51.5 °F 29.99 in West 1.0 mph 5.0 mph 44% 0.00 in
12:34 74.7 °F 50.7 °F 29.99 in East 2.0 mph 8.0 mph 43% 0.00 in
12:39 74.5 °F 52.4 °F 29.98 in East 3.0 mph 8.0 mph 46% 0.00 in
12:44 73.5 °F 49.0 °F 29.98 in SSW 2.0 mph 6.0 mph 42% 0.00 in
12:49 74.4 °F 53.4 °F 29.98 in SSW 1.0 mph 6.0 mph 48% 0.00 in
12:54 75.1 °F 51.1 °F 29.98 in SSW 1.0 mph 4.0 mph 43% 0.00 in
12:59 74.5 °F 51.2 °F 29.98 in SW 1.0 mph 6.0 mph 44% 0.00 in
13:04 73.6 °F 50.3 °F 29.97 in NE 1.0 mph 5.0 mph 44% 0.00 in
13:09 73.8 °F 50.5 °F 29.97 in East 3.0 mph 9.0 mph 44% 0.00 in
13:14 75.5 °F 50.8 °F 29.97 in SE 1.0 mph 10.0 mph 42% 0.00 in
13:19 74.9 °F 48.9 °F 29.97 in NE 4.0 mph 12.0 mph 40% 0.00 in
13:24 74.9 °F 52.7 °F 29.96 in ENE 4.0 mph 7.0 mph 46% 0.00 in
13:29 74.2 °F 50.3 °F 29.96 in ENE 4.0 mph 10.0 mph 43% 0.00 in
13:34 73.2 °F 50.6 °F 29.96 in East 3.0 mph 10.0 mph 45% 0.00 in
13:39 74.7 °F 51.3 °F 29.96 in East 2.0 mph 7.0 mph 44% 0.00 in
13:44 73.7 °F 51.0 °F 29.95 in NNE 2.0 mph 5.0 mph 45% 0.00 in
13:49 74.2 °F 53.2 °F 29.95 in NNE 5.0 mph 6.0 mph 48% 0.00 in
13:54 73.7 °F 51.0 °F 29.95 in NNE 3.0 mph 10.0 mph 45% 0.00 in
13:59 73.2 °F 51.2 °F 29.95 in NE 4.0 mph 10.0 mph 46% 0.00 in
14:04 73.2 °F 51.2 °F 29.94 in NE 2.0 mph 9.0 mph 46% 0.00 in
14:09 73.0 °F 51.0 °F 29.94 in ENE 5.0 mph 7.0 mph 46% 0.00 in
14:14 72.7 °F 51.9 °F 29.94 in North 3.0 mph 8.0 mph 48% 0.00 in
14:19 72.8 °F 49.6 °F 29.94 in NE 2.0 mph 7.0 mph 44% 0.00 in
14:24 75.5 °F 53.3 °F 29.93 in North 2.0 mph 4.0 mph 46% 0.00 in
14:29 75.9 °F 53.6 °F 29.93 in North 2.0 mph 5.0 mph 46% 0.00 in
14:34 74.4 °F 50.4 °F 29.93 in NNE 3.0 mph 7.0 mph 43% 0.00 in
14:39 73.3 °F 51.3 °F 29.93 in NE 3.0 mph 8.0 mph 46% 0.00 in
14:44 73.2 °F 50.6 °F 29.93 in NE 3.0 mph 8.0 mph 45% 0.00 in
14:49 74.4 °F 50.4 °F 29.93 in ENE 3.0 mph 8.0 mph 43% 0.00 in
14:54 75.5 °F 50.8 °F 29.92 in Calm   8.0 mph 42% 0.00 in
14:59 76.1 °F 51.3 °F 29.92 in NE 1.0 mph 3.0 mph 42% 0.00 in
15:04 75.9 °F 53.0 °F 29.92 in NW 2.0 mph 8.0 mph 45% 0.00 in
15:09 75.7 °F 51.0 °F 29.92 in NW 1.0 mph 3.0 mph 42% 0.00 in
15:14 75.1 °F 52.9 °F 29.92 in NNE 2.0 mph 9.0 mph 46% 0.00 in
15:19 76.0 °F 52.5 °F 29.91 in ENE 10.0 mph 10.0 mph 44% 0.00 in
15:24 76.3 °F 52.2 °F 29.91 in NE 4.0 mph 10.0 mph 43% 0.00 in
15:29 76.3 °F 50.2 °F 29.91 in NE 4.0 mph 10.0 mph 40% 0.00 in
15:34 76.8 °F 52.6 °F 29.91 in NE 3.0 mph 9.0 mph 43% 0.00 in
15:39 76.7 °F 51.9 °F 29.90 in NE 3.0 mph 8.0 mph 42% 0.00 in
15:44 77.0 °F 50.8 °F 29.90 in ENE 3.0 mph 8.0 mph 40% 0.00 in
15:49 75.5 °F 53.3 °F 29.90 in NE 4.0 mph 11.0 mph 46% 0.00 in
15:54 73.5 °F 52.6 °F 29.90 in NNE 4.0 mph 11.0 mph 48% 0.00 in
15:59 74.5 °F 54.1 °F 29.89 in Calm   6.0 mph 49% 0.00 in
16:04 76.1 °F 55.0 °F 29.89 in NNW 2.0 mph 8.0 mph 48% 0.00 in
16:09 76.4 °F 55.3 °F 29.89 in WNW 8.0 mph 9.0 mph 48% 0.00 in
16:14 75.9 °F 54.2 °F 29.89 in NE 4.0 mph 12.0 mph 47% 0.00 in
16:19 75.6 °F 55.1 °F 29.88 in NW 2.0 mph 10.0 mph 49% 0.00 in
16:24 74.8 °F 52.6 °F 29.88 in NNW 3.0 mph 9.0 mph 46% 0.00 in
16:29 73.5 °F 52.0 °F 29.88 in North 4.0 mph 11.0 mph 47% 0.00 in
16:34 73.5 °F 53.2 °F 29.88 in NNW 5.0 mph 11.0 mph 49% 0.00 in
16:39 74.8 °F 54.4 °F 29.87 in North 4.0 mph 10.0 mph 49% 0.00 in
16:44 74.9 °F 54.4 °F 29.87 in NNW 4.0 mph 10.0 mph 49% 0.00 in
16:49 75.6 °F 53.9 °F 29.87 in NNW 4.0 mph 10.0 mph 47% 0.00 in
16:54 75.2 °F 54.2 °F 29.87 in NE 3.0 mph 9.0 mph 48% 0.00 in
16:59 74.1 °F 53.7 °F 29.87 in WNW 4.0 mph 7.0 mph 49% 0.00 in
17:04 74.0 °F 53.6 °F 29.87 in North 4.0 mph 8.0 mph 49% 0.00 in
17:09 74.0 °F 53.1 °F 29.87 in NNE 2.0 mph 7.0 mph 48% 0.00 in
17:14 74.0 °F 53.6 °F 29.87 in Calm   6.0 mph 49% 0.00 in
17:19 73.8 °F 52.3 °F 29.86 in NNW 2.0 mph 8.0 mph 47% 0.00 in
17:24 74.7 °F 53.7 °F 29.86 in NNE 3.0 mph 7.0 mph 48% 0.00 in
17:29 75.1 °F 53.5 °F 29.86 in NW 2.0 mph 6.0 mph 47% 0.00 in
17:34 75.4 °F 54.3 °F 29.86 in North 3.0 mph 9.0 mph 48% 0.00 in
17:39 75.2 °F 53.6 °F 29.86 in North 3.0 mph 9.0 mph 47% 0.00 in
17:44 75.0 °F 54.0 °F 29.86 in North 3.0 mph 9.0 mph 48% 0.00 in
17:49 74.8 °F 53.2 °F 29.85 in North 4.0 mph 9.0 mph 47% 0.00 in
17:54 73.9 °F 52.4 °F 29.86 in NNW 2.0 mph 7.0 mph 47% 0.00 in
17:59 73.4 °F 52.5 °F 29.85 in North 3.0 mph 8.0 mph 48% 0.00 in
18:04 73.9 °F 53.0 °F 29.85 in NNW 5.0 mph 10.0 mph 48% 0.00 in
18:09 74.1 °F 51.4 °F 29.85 in North 4.0 mph 10.0 mph 45% 0.00 in
18:14 73.7 °F 53.3 °F 29.85 in North 3.0 mph 9.0 mph 49% 0.00 in
18:19 73.8 °F 51.7 °F 29.85 in North 4.0 mph 8.0 mph 46% 0.00 in
18:24 73.5 °F 52.6 °F 29.85 in North 7.0 mph 9.0 mph 48% 0.00 in
18:29 73.1 °F 52.8 °F 29.84 in NE 1.0 mph 9.0 mph 49% 0.00 in
18:34 73.0 °F 51.6 °F 29.85 in NNW 2.0 mph 10.0 mph 47% 0.00 in
18:39 72.8 °F 51.4 °F 29.84 in North 4.0 mph 10.0 mph 47% 0.00 in
18:44 72.5 °F 52.2 °F 29.84 in NNW 4.0 mph 10.0 mph 49% 0.00 in
18:49 72.2 °F 50.3 °F 29.84 in North 5.0 mph 8.0 mph 46% 0.00 in
18:54 71.9 °F 51.1 °F 29.84 in North 2.0 mph 11.0 mph 48% 0.00 in
18:59 72.0 °F 51.2 °F 29.84 in NNW 6.0 mph 8.0 mph 48% 0.00 in
19:04 71.8 °F 51.0 °F 29.84 in NW 2.0 mph 11.0 mph 48% 0.00 in
19:09 71.6 °F 51.4 °F 29.84 in North 4.0 mph 11.0 mph 49% 0.00 in
19:14 71.4 °F 51.2 °F 29.84 in North 4.0 mph 11.0 mph 49% 0.00 in
19:19 71.3 °F 51.1 °F 29.84 in North 4.0 mph 11.0 mph 49% 0.00 in
19:24 71.1 °F 51.5 °F 29.84 in North 3.0 mph 6.0 mph 50% 0.00 in
19:29 71.0 °F 50.9 °F 29.84 in North 3.0 mph 7.0 mph 49% 0.00 in
19:34 70.6 °F 51.1 °F 29.84 in NNW 2.0 mph 8.0 mph 50% 0.00 in
19:39 70.4 °F 50.9 °F 29.85 in NNW 3.0 mph 8.0 mph 50% 0.00 in
19:44 70.3 °F 50.2 °F 29.84 in North 4.0 mph 9.0 mph 49% 0.00 in
19:54 69.5 °F 49.5 °F 29.84 in NNW 2.0 mph 7.0 mph 49% 0.00 in
19:59 69.3 °F 49.9 °F 29.84 in North 2.0 mph 7.0 mph 50% 0.00 in
20:04 69.0 °F 49.6 °F 29.84 in North 3.0 mph 8.0 mph 50% 0.00 in
20:09 69.1 °F 49.7 °F 29.84 in NW 2.0 mph 5.0 mph 50% 0.00 in
20:14 68.7 °F 49.3 °F 29.84 in NNW 2.0 mph 5.0 mph 50% 0.00 in
20:19 68.3 °F 50.0 °F 29.84 in NNW 2.0 mph 6.0 mph 52% 0.00 in
20:24 68.0 °F 49.7 °F 29.84 in NNW 2.0 mph 6.0 mph 52% 0.00 in
20:29 67.7 °F 49.4 °F 29.84 in NNW 2.0 mph 5.0 mph 52% 0.00 in
20:34 67.6 °F 49.3 °F 29.84 in NNW 4.0 mph 5.0 mph 52% 0.00 in
20:39 67.1 °F 49.4 °F 29.84 in NNW 3.0 mph 4.0 mph 53% 0.00 in
20:44 67.0 °F 49.3 °F 29.83 in NNW 2.0 mph 6.0 mph 53% 0.00 in
20:49 66.9 °F 49.2 °F 29.83 in NW 1.0 mph 5.0 mph 53% 0.00 in
20:54 66.5 °F 48.8 °F 29.83 in NW 1.0 mph 2.0 mph 53% 0.00 in
20:59 66.2 °F 48.6 °F 29.84 in Calm   2.0 mph 53% 0.00 in
21:04 65.9 °F 48.8 °F 29.84 in Calm     54% 0.00 in
21:09 65.6 °F 48.5 °F 29.84 in Calm     54% 0.00 in
21:14 65.6 °F 49.0 °F 29.84 in Calm     55% 0.00 in
21:19 65.1 °F 48.5 °F 29.84 in Calm     55% 0.00 in
21:24 64.9 °F 48.8 °F 29.84 in Calm     56% 0.00 in
21:29 64.6 °F 48.5 °F 29.84 in Calm     56% 0.00 in
21:34 64.4 °F 48.8 °F 29.84 in Calm     57% 0.00 in
21:39 64.0 °F 48.9 °F 29.84 in Calm     58% 0.00 in
21:44 63.8 °F 48.7 °F 29.84 in Calm     58% 0.00 in
21:49 63.6 °F 48.5 °F 29.84 in Calm     58% 0.00 in
21:54 63.6 °F 48.5 °F 29.84 in Calm     58% 0.00 in
21:59 63.4 °F 48.8 °F 29.84 in Calm     59% 0.00 in
22:04 63.1 °F 49.0 °F 29.84 in Calm     60% 0.00 in
22:09 62.6 °F 49.4 °F 29.84 in Calm     62% 0.00 in
22:14 62.3 °F 50.0 °F 29.84 in Calm     64% 0.00 in
22:19 62.0 °F 49.7 °F 29.84 in Calm     64% 0.00 in
22:24 61.6 °F 49.7 °F 29.85 in Calm   2.0 mph 65% 0.00 in
22:29 61.6 °F 50.5 °F 29.84 in SW 2.0 mph 2.0 mph 67% 0.00 in
22:34 61.8 °F 52.3 °F 29.85 in South 2.0 mph 4.0 mph 71% 0.00 in
22:39 61.9 °F 53.5 °F 29.85 in South 1.0 mph 4.0 mph 74% 0.00 in
22:44 61.4 °F 53.4 °F 29.84 in SSW 1.0 mph 4.0 mph 75% 0.00 in
22:49 61.0 °F 53.7 °F 29.84 in SSW 1.0 mph 4.0 mph 77% 0.00 in
22:54 60.8 °F 53.5 °F 29.84 in Calm   2.0 mph 77% 0.00 in
22:59 60.6 °F 53.7 °F 29.84 in Calm     78% 0.00 in
23:04 60.5 °F 54.0 °F 29.84 in Calm     79% 0.00 in
23:09 60.3 °F 54.1 °F 29.84 in Calm     80% 0.00 in
23:14 60.1 °F 53.9 °F 29.84 in Calm     80% 0.00 in
23:19 59.7 °F 53.9 °F 29.83 in Calm     81% 0.00 in
23:24 59.5 °F 53.3 °F 29.83 in Calm     80% 0.00 in
23:29 59.3 °F 53.1 °F 29.83 in Calm     80% 0.00 in
23:34 59.1 °F 53.3 °F 29.83 in Calm     81% 0.00 in
23:39 59.4 °F 53.2 °F 29.83 in Calm     80% 0.00 in
23:44 59.3 °F 52.8 °F 29.83 in Calm     79% 0.00 in
23:49 59.2 °F 52.7 °F 29.83 in Calm     79% 0.00 in
23:54 59.0 °F 52.5 °F 29.82 in Calm     79% 0.00 in
23:59 58.9 °F 52.7 °F 29.82 in Calm     80% 0.00 in
Buffalo, New York, USA
Compliments of Weather Underground - 2.5 mb